sensor_id;sensor_type;location;lat;lon;timestamp;P1;durP1;ratioP1;P2;durP2;ratioP2
8632;SDS011;4354;49.832;10.746;2023-07-28T00:02:00;9.50;;;5.63;;
8632;SDS011;4354;49.832;10.746;2023-07-28T00:04:29;6.90;;;6.28;;
8632;SDS011;4354;49.832;10.746;2023-07-28T00:06:56;6.80;;;6.07;;
8632;SDS011;4354;49.832;10.746;2023-07-28T00:09:23;7.40;;;6.35;;
8632;SDS011;4354;49.832;10.746;2023-07-28T00:11:49;10.00;;;6.65;;
8632;SDS011;4354;49.832;10.746;2023-07-28T00:14:16;6.88;;;6.28;;
8632;SDS011;4354;49.832;10.746;2023-07-28T00:16:43;6.70;;;6.10;;
8632;SDS011;4354;49.832;10.746;2023-07-28T00:19:10;8.80;;;6.20;;
8632;SDS011;4354;49.832;10.746;2023-07-28T00:21:37;6.65;;;5.95;;
8632;SDS011;4354;49.832;10.746;2023-07-28T00:24:04;9.60;;;6.57;;
8632;SDS011;4354;49.832;10.746;2023-07-28T00:26:31;7.15;;;6.28;;
8632;SDS011;4354;49.832;10.746;2023-07-28T00:28:58;7.82;;;6.53;;
8632;SDS011;4354;49.832;10.746;2023-07-28T00:31:25;7.28;;;6.32;;
8632;SDS011;4354;49.832;10.746;2023-07-28T00:33:52;6.70;;;5.97;;
8632;SDS011;4354;49.832;10.746;2023-07-28T00:36:19;9.88;;;6.72;;
8632;SDS011;4354;49.832;10.746;2023-07-28T00:38:46;6.10;;;5.45;;
8632;SDS011;4354;49.832;10.746;2023-07-28T00:41:13;10.75;;;6.00;;
8632;SDS011;4354;49.832;10.746;2023-07-28T00:43:40;7.68;;;5.55;;
8632;SDS011;4354;49.832;10.746;2023-07-28T00:46:07;7.72;;;6.10;;
8632;SDS011;4354;49.832;10.746;2023-07-28T00:48:35;5.93;;;5.40;;
8632;SDS011;4354;49.832;10.746;2023-07-28T00:51:03;6.80;;;5.68;;
8632;SDS011;4354;49.832;10.746;2023-07-28T00:53:30;7.45;;;5.53;;
8632;SDS011;4354;49.832;10.746;2023-07-28T00:55:57;7.18;;;5.32;;
8632;SDS011;4354;49.832;10.746;2023-07-28T00:58:24;5.78;;;5.28;;
8632;SDS011;4354;49.832;10.746;2023-07-28T01:00:51;6.78;;;5.18;;
8632;SDS011;4354;49.832;10.746;2023-07-28T01:03:18;9.05;;;5.00;;
8632;SDS011;4354;49.832;10.746;2023-07-28T01:08:20;5.00;;;4.53;;
8632;SDS011;4354;49.832;10.746;2023-07-28T01:10:56;6.03;;;4.40;;
8632;SDS011;4354;49.832;10.746;2023-07-28T01:13:23;6.82;;;4.75;;
8632;SDS011;4354;49.832;10.746;2023-07-28T01:15:49;4.70;;;4.07;;
8632;SDS011;4354;49.832;10.746;2023-07-28T01:18:16;4.75;;;4.20;;
8632;SDS011;4354;49.832;10.746;2023-07-28T01:20:43;6.65;;;4.55;;
8632;SDS011;4354;49.832;10.746;2023-07-28T01:23:20;6.00;;;4.13;;
8632;SDS011;4354;49.832;10.746;2023-07-28T01:26:15;8.52;;;4.60;;
8632;SDS011;4354;49.832;10.746;2023-07-28T01:28:42;4.82;;;3.92;;
8632;SDS011;4354;49.832;10.746;2023-07-28T01:31:10;4.57;;;3.88;;
8632;SDS011;4354;49.832;10.746;2023-07-28T01:33:37;5.25;;;4.32;;
8632;SDS011;4354;49.832;10.746;2023-07-28T01:36:04;4.43;;;4.03;;
8632;SDS011;4354;49.832;10.746;2023-07-28T01:38:31;4.60;;;4.07;;
8632;SDS011;4354;49.832;10.746;2023-07-28T01:40:58;4.57;;;4.10;;
8632;SDS011;4354;49.832;10.746;2023-07-28T01:43:25;4.43;;;3.50;;
8632;SDS011;4354;49.832;10.746;2023-07-28T01:45:51;4.32;;;3.92;;
8632;SDS011;4354;49.832;10.746;2023-07-28T01:48:18;4.47;;;4.05;;
8632;SDS011;4354;49.832;10.746;2023-07-28T01:50:45;3.97;;;3.58;;
8632;SDS011;4354;49.832;10.746;2023-07-28T01:53:12;4.55;;;4.15;;
8632;SDS011;4354;49.832;10.746;2023-07-28T01:55:39;3.65;;;3.35;;
8632;SDS011;4354;49.832;10.746;2023-07-28T01:58:06;4.38;;;3.95;;
8632;SDS011;4354;49.832;10.746;2023-07-28T02:00:32;5.57;;;3.60;;
8632;SDS011;4354;49.832;10.746;2023-07-28T02:02:59;4.75;;;4.07;;
8632;SDS011;4354;49.832;10.746;2023-07-28T02:05:28;5.88;;;3.90;;
8632;SDS011;4354;49.832;10.746;2023-07-28T02:07:56;4.63;;;4.20;;
8632;SDS011;4354;49.832;10.746;2023-07-28T02:10:23;4.00;;;3.70;;
8632;SDS011;4354;49.832;10.746;2023-07-28T02:12:51;4.75;;;4.28;;
8632;SDS011;4354;49.832;10.746;2023-07-28T02:15:18;6.03;;;4.38;;
8632;SDS011;4354;49.832;10.746;2023-07-28T02:17:45;7.53;;;4.28;;
8632;SDS011;4354;49.832;10.746;2023-07-28T02:20:12;4.97;;;4.47;;
8632;SDS011;4354;49.832;10.746;2023-07-28T02:22:42;4.95;;;4.22;;
8632;SDS011;4354;49.832;10.746;2023-07-28T02:25:09;6.40;;;4.65;;
8632;SDS011;4354;49.832;10.746;2023-07-28T02:27:37;4.68;;;4.13;;
8632;SDS011;4354;49.832;10.746;2023-07-28T02:30:04;5.88;;;4.15;;
8632;SDS011;4354;49.832;10.746;2023-07-28T02:32:31;5.28;;;4.78;;
8632;SDS011;4354;49.832;10.746;2023-07-28T02:34:59;5.07;;;4.57;;
8632;SDS011;4354;49.832;10.746;2023-07-28T02:37:26;5.50;;;4.18;;
8632;SDS011;4354;49.832;10.746;2023-07-28T02:39:52;4.85;;;4.45;;
8632;SDS011;4354;49.832;10.746;2023-07-28T02:42:19;4.78;;;4.38;;
8632;SDS011;4354;49.832;10.746;2023-07-28T02:44:46;5.10;;;4.20;;
8632;SDS011;4354;49.832;10.746;2023-07-28T02:47:13;4.95;;;4.32;;
8632;SDS011;4354;49.832;10.746;2023-07-28T02:49:40;4.85;;;4.32;;
8632;SDS011;4354;49.832;10.746;2023-07-28T02:52:08;5.75;;;4.80;;
8632;SDS011;4354;49.832;10.746;2023-07-28T02:54:35;5.15;;;4.10;;
8632;SDS011;4354;49.832;10.746;2023-07-28T02:57:02;4.78;;;4.38;;
8632;SDS011;4354;49.832;10.746;2023-07-28T02:59:29;5.40;;;4.63;;
8632;SDS011;4354;49.832;10.746;2023-07-28T03:01:55;5.10;;;4.60;;
8632;SDS011;4354;49.832;10.746;2023-07-28T03:04:23;5.78;;;4.75;;
8632;SDS011;4354;49.832;10.746;2023-07-28T03:06:50;5.47;;;3.97;;
8632;SDS011;4354;49.832;10.746;2023-07-28T03:09:17;4.65;;;4.15;;
8632;SDS011;4354;49.832;10.746;2023-07-28T03:11:44;4.85;;;4.32;;
8632;SDS011;4354;49.832;10.746;2023-07-28T03:14:11;6.28;;;4.30;;
8632;SDS011;4354;49.832;10.746;2023-07-28T03:16:39;3.55;;;3.30;;
8632;SDS011;4354;49.832;10.746;2023-07-28T03:19:07;4.53;;;4.13;;
8632;SDS011;4354;49.832;10.746;2023-07-28T03:21:34;4.15;;;3.75;;
8632;SDS011;4354;49.832;10.746;2023-07-28T03:24:05;3.97;;;3.50;;
8632;SDS011;4354;49.832;10.746;2023-07-28T03:26:31;3.80;;;3.40;;
8632;SDS011;4354;49.832;10.746;2023-07-28T03:28:59;5.20;;;3.90;;
8632;SDS011;4354;49.832;10.746;2023-07-28T03:31:26;5.32;;;3.80;;
8632;SDS011;4354;49.832;10.746;2023-07-28T03:33:52;6.18;;;3.80;;
8632;SDS011;4354;49.832;10.746;2023-07-28T03:36:19;3.75;;;3.45;;
8632;SDS011;4354;49.832;10.746;2023-07-28T03:38:46;3.70;;;3.40;;
8632;SDS011;4354;49.832;10.746;2023-07-28T03:41:13;4.28;;;3.17;;
8632;SDS011;4354;49.832;10.746;2023-07-28T03:43:40;4.05;;;3.38;;
8632;SDS011;4354;49.832;10.746;2023-07-28T03:46:08;4.15;;;3.67;;
8632;SDS011;4354;49.832;10.746;2023-07-28T03:48:35;5.63;;;2.97;;
8632;SDS011;4354;49.832;10.746;2023-07-28T03:51:01;3.40;;;3.10;;
8632;SDS011;4354;49.832;10.746;2023-07-28T03:53:28;3.45;;;2.90;;
8632;SDS011;4354;49.832;10.746;2023-07-28T03:55:55;3.83;;;3.45;;
8632;SDS011;4354;49.832;10.746;2023-07-28T03:58:27;3.75;;;3.10;;
8632;SDS011;4354;49.832;10.746;2023-07-28T04:00:53;6.00;;;3.63;;
8632;SDS011;4354;49.832;10.746;2023-07-28T04:03:21;3.97;;;3.30;;
8632;SDS011;4354;49.832;10.746;2023-07-28T04:05:48;3.10;;;2.90;;
8632;SDS011;4354;49.832;10.746;2023-07-28T04:08:15;4.93;;;3.30;;
8632;SDS011;4354;49.832;10.746;2023-07-28T04:10:42;7.85;;;3.83;;
8632;SDS011;4354;49.832;10.746;2023-07-28T04:13:08;4.55;;;3.90;;
8632;SDS011;4354;49.832;10.746;2023-07-28T04:15:35;3.95;;;3.25;;
8632;SDS011;4354;49.832;10.746;2023-07-28T04:18:02;3.65;;;3.35;;
8632;SDS011;4354;49.832;10.746;2023-07-28T04:20:29;3.63;;;2.70;;
8632;SDS011;4354;49.832;10.746;2023-07-28T04:22:56;4.30;;;2.47;;
8632;SDS011;4354;49.832;10.746;2023-07-28T04:25:23;3.55;;;2.78;;
8632;SDS011;4354;49.832;10.746;2023-07-28T04:27:49;3.30;;;2.40;;
8632;SDS011;4354;49.832;10.746;2023-07-28T04:30:16;3.55;;;2.60;;
8632;SDS011;4354;49.832;10.746;2023-07-28T04:32:43;5.28;;;2.72;;
8632;SDS011;4354;49.832;10.746;2023-07-28T04:35:10;2.90;;;2.58;;
8632;SDS011;4354;49.832;10.746;2023-07-28T04:37:37;1.98;;;1.88;;
8632;SDS011;4354;49.832;10.746;2023-07-28T04:40:04;3.15;;;2.83;;
8632;SDS011;4354;49.832;10.746;2023-07-28T04:42:31;2.33;;;2.13;;
8632;SDS011;4354;49.832;10.746;2023-07-28T04:44:57;2.45;;;2.25;;
8632;SDS011;4354;49.832;10.746;2023-07-28T04:47:24;2.50;;;2.15;;
8632;SDS011;4354;49.832;10.746;2023-07-28T04:49:51;2.75;;;2.15;;
8632;SDS011;4354;49.832;10.746;2023-07-28T04:52:18;3.15;;;2.05;;
8632;SDS011;4354;49.832;10.746;2023-07-28T04:54:44;2.83;;;2.45;;
8632;SDS011;4354;49.832;10.746;2023-07-28T04:57:11;2.47;;;2.28;;
8632;SDS011;4354;49.832;10.746;2023-07-28T04:59:41;3.10;;;2.00;;
8632;SDS011;4354;49.832;10.746;2023-07-28T05:02:09;2.30;;;2.00;;
8632;SDS011;4354;49.832;10.746;2023-07-28T05:04:36;3.00;;;2.40;;
8632;SDS011;4354;49.832;10.746;2023-07-28T05:07:03;2.72;;;1.77;;
8632;SDS011;4354;49.832;10.746;2023-07-28T05:09:31;2.28;;;1.67;;
8632;SDS011;4354;49.832;10.746;2023-07-28T05:11:59;4.70;;;1.92;;
8632;SDS011;4354;49.832;10.746;2023-07-28T05:14:25;1.58;;;1.48;;
8632;SDS011;4354;49.832;10.746;2023-07-28T05:16:52;4.32;;;1.85;;
8632;SDS011;4354;49.832;10.746;2023-07-28T05:19:19;1.60;;;1.50;;
8632;SDS011;4354;49.832;10.746;2023-07-28T05:21:46;1.80;;;1.70;;
8632;SDS011;4354;49.832;10.746;2023-07-28T05:24:13;1.58;;;1.48;;
8632;SDS011;4354;49.832;10.746;2023-07-28T05:26:39;2.45;;;1.20;;
8632;SDS011;4354;49.832;10.746;2023-07-28T05:29:06;2.30;;;1.38;;
8632;SDS011;4354;49.832;10.746;2023-07-28T05:31:33;1.55;;;1.40;;
8632;SDS011;4354;49.832;10.746;2023-07-28T05:34:00;3.90;;;1.52;;
8632;SDS011;4354;49.832;10.746;2023-07-28T05:36:27;1.58;;;1.10;;
8632;SDS011;4354;49.832;10.746;2023-07-28T05:38:54;1.30;;;1.17;;
8632;SDS011;4354;49.832;10.746;2023-07-28T05:41:22;2.25;;;1.40;;
8632;SDS011;4354;49.832;10.746;2023-07-28T05:43:50;1.42;;;1.33;;
8632;SDS011;4354;49.832;10.746;2023-07-28T05:46:17;1.23;;;1.13;;
8632;SDS011;4354;49.832;10.746;2023-07-28T05:48:45;2.35;;;1.35;;
8632;SDS011;4354;49.832;10.746;2023-07-28T05:51:11;1.30;;;1.20;;
8632;SDS011;4354;49.832;10.746;2023-07-28T05:53:38;1.80;;;1.13;;
8632;SDS011;4354;49.832;10.746;2023-07-28T05:56:05;1.52;;;1.23;;
8632;SDS011;4354;49.832;10.746;2023-07-28T05:58:32;2.55;;;1.30;;
8632;SDS011;4354;49.832;10.746;2023-07-28T06:00:59;1.42;;;1.10;;
8632;SDS011;4354;49.832;10.746;2023-07-28T06:03:26;1.10;;;1.10;;
8632;SDS011;4354;49.832;10.746;2023-07-28T06:05:55;0.93;;;0.93;;
8632;SDS011;4354;49.832;10.746;2023-07-28T06:08:22;1.33;;;1.23;;
8632;SDS011;4354;49.832;10.746;2023-07-28T06:10:49;1.05;;;0.98;;
8632;SDS011;4354;49.832;10.746;2023-07-28T06:13:16;2.58;;;1.10;;
8632;SDS011;4354;49.832;10.746;2023-07-28T06:15:42;1.70;;;1.30;;
8632;SDS011;4354;49.832;10.746;2023-07-28T06:18:09;2.10;;;1.50;;
8632;SDS011;4354;49.832;10.746;2023-07-28T06:20:36;1.40;;;1.20;;
8632;SDS011;4354;49.832;10.746;2023-07-28T06:23:03;4.18;;;1.27;;
8632;SDS011;4354;49.832;10.746;2023-07-28T06:25:29;1.33;;;1.13;;
8632;SDS011;4354;49.832;10.746;2023-07-28T06:27:56;1.52;;;1.30;;
8632;SDS011;4354;49.832;10.746;2023-07-28T06:30:23;2.95;;;1.27;;
8632;SDS011;4354;49.832;10.746;2023-07-28T06:32:50;1.42;;;1.20;;
8632;SDS011;4354;49.832;10.746;2023-07-28T06:35:17;1.10;;;1.00;;
8632;SDS011;4354;49.832;10.746;2023-07-28T06:37:44;1.30;;;1.20;;
8632;SDS011;4354;49.832;10.746;2023-07-28T06:40:10;1.58;;;1.25;;
8632;SDS011;4354;49.832;10.746;2023-07-28T06:42:38;1.02;;;1.00;;
8632;SDS011;4354;49.832;10.746;2023-07-28T06:45:05;1.95;;;1.20;;
8632;SDS011;4354;49.832;10.746;2023-07-28T06:47:32;3.50;;;1.70;;
8632;SDS011;4354;49.832;10.746;2023-07-28T06:49:59;3.00;;;1.60;;
8632;SDS011;4354;49.832;10.746;2023-07-28T06:52:25;1.48;;;1.35;;
8632;SDS011;4354;49.832;10.746;2023-07-28T06:54:52;1.77;;;1.50;;
8632;SDS011;4354;49.832;10.746;2023-07-28T06:57:20;1.50;;;1.40;;
8632;SDS011;4354;49.832;10.746;2023-07-28T06:59:47;2.00;;;1.80;;
8632;SDS011;4354;49.832;10.746;2023-07-28T07:02:15;2.05;;;1.85;;
8632;SDS011;4354;49.832;10.746;2023-07-28T07:04:42;3.83;;;1.63;;
8632;SDS011;4354;49.832;10.746;2023-07-28T07:07:09;2.17;;;1.40;;
8632;SDS011;4354;49.832;10.746;2023-07-28T07:09:35;2.75;;;1.30;;
8632;SDS011;4354;49.832;10.746;2023-07-28T07:12:03;1.63;;;1.30;;
8632;SDS011;4354;49.832;10.746;2023-07-28T07:14:30;2.55;;;1.75;;
8632;SDS011;4354;49.832;10.746;2023-07-28T07:16:57;1.70;;;1.60;;
8632;SDS011;4354;49.832;10.746;2023-07-28T07:19:24;2.17;;;1.58;;
8632;SDS011;4354;49.832;10.746;2023-07-28T07:21:50;1.75;;;1.40;;
8632;SDS011;4354;49.832;10.746;2023-07-28T07:24:17;2.70;;;1.42;;
8632;SDS011;4354;49.832;10.746;2023-07-28T07:26:44;2.25;;;1.30;;
8632;SDS011;4354;49.832;10.746;2023-07-28T07:29:11;1.98;;;1.40;;
8632;SDS011;4354;49.832;10.746;2023-07-28T07:31:38;1.38;;;1.27;;
8632;SDS011;4354;49.832;10.746;2023-07-28T07:34:05;1.92;;;1.40;;
8632;SDS011;4354;49.832;10.746;2023-07-28T07:36:32;3.00;;;1.17;;
8632;SDS011;4354;49.832;10.746;2023-07-28T07:38:59;1.90;;;1.75;;
8632;SDS011;4354;49.832;10.746;2023-07-28T07:41:26;1.95;;;1.55;;
8632;SDS011;4354;49.832;10.746;2023-07-28T07:43:53;1.60;;;1.50;;
8632;SDS011;4354;49.832;10.746;2023-07-28T07:46:21;1.73;;;1.50;;
8632;SDS011;4354;49.832;10.746;2023-07-28T07:48:48;2.65;;;1.77;;
8632;SDS011;4354;49.832;10.746;2023-07-28T07:51:16;3.60;;;1.60;;
8632;SDS011;4354;49.832;10.746;2023-07-28T07:53:43;1.80;;;1.60;;
8632;SDS011;4354;49.832;10.746;2023-07-28T07:56:10;2.25;;;1.55;;
8632;SDS011;4354;49.832;10.746;2023-07-28T07:58:36;1.60;;;1.50;;
8632;SDS011;4354;49.832;10.746;2023-07-28T08:01:03;2.58;;;1.95;;
8632;SDS011;4354;49.832;10.746;2023-07-28T08:03:30;1.55;;;1.45;;
8632;SDS011;4354;49.832;10.746;2023-07-28T08:06:02;2.05;;;1.60;;
8632;SDS011;4354;49.832;10.746;2023-07-28T08:08:29;2.60;;;1.65;;
8632;SDS011;4354;49.832;10.746;2023-07-28T08:10:56;1.90;;;1.73;;
8632;SDS011;4354;49.832;10.746;2023-07-28T08:13:23;2.50;;;1.58;;
8632;SDS011;4354;49.832;10.746;2023-07-28T08:15:50;1.40;;;1.30;;
8632;SDS011;4354;49.832;10.746;2023-07-28T08:18:17;1.60;;;1.50;;
8632;SDS011;4354;49.832;10.746;2023-07-28T08:20:43;2.50;;;1.48;;
8632;SDS011;4354;49.832;10.746;2023-07-28T08:23:10;1.60;;;1.30;;
8632;SDS011;4354;49.832;10.746;2023-07-28T08:25:37;5.28;;;1.50;;
8632;SDS011;4354;49.832;10.746;2023-07-28T08:28:04;1.40;;;1.30;;
8632;SDS011;4354;49.832;10.746;2023-07-28T08:30:31;1.70;;;1.60;;
8632;SDS011;4354;49.832;10.746;2023-07-28T08:32:58;1.90;;;1.30;;
8632;SDS011;4354;49.832;10.746;2023-07-28T08:35:26;2.33;;;1.30;;
8632;SDS011;4354;49.832;10.746;2023-07-28T08:37:53;2.22;;;1.70;;
8632;SDS011;4354;49.832;10.746;2023-07-28T08:40:19;1.80;;;1.40;;
8632;SDS011;4354;49.832;10.746;2023-07-28T08:42:46;2.20;;;1.75;;
8632;SDS011;4354;49.832;10.746;2023-07-28T08:45:15;2.58;;;1.23;;
8632;SDS011;4354;49.832;10.746;2023-07-28T08:47:47;1.40;;;1.27;;
8632;SDS011;4354;49.832;10.746;2023-07-28T08:50:14;1.30;;;1.20;;
8632;SDS011;4354;49.832;10.746;2023-07-28T08:52:41;1.30;;;1.20;;
8632;SDS011;4354;49.832;10.746;2023-07-28T08:55:08;1.30;;;1.02;;
8632;SDS011;4354;49.832;10.746;2023-07-28T08:57:35;1.42;;;0.88;;
8632;SDS011;4354;49.832;10.746;2023-07-28T09:00:08;1.38;;;1.27;;
8632;SDS011;4354;49.832;10.746;2023-07-28T09:02:37;3.38;;;1.38;;
8632;SDS011;4354;49.832;10.746;2023-07-28T09:05:04;1.30;;;1.20;;
8632;SDS011;4354;49.832;10.746;2023-07-28T09:07:34;2.45;;;1.25;;
8632;SDS011;4354;49.832;10.746;2023-07-28T09:10:05;1.52;;;1.23;;
8632;SDS011;4354;49.832;10.746;2023-07-28T09:12:32;4.55;;;1.17;;
8632;SDS011;4354;49.832;10.746;2023-07-28T09:14:59;2.00;;;1.48;;
8632;SDS011;4354;49.832;10.746;2023-07-28T09:17:26;1.85;;;1.75;;
8632;SDS011;4354;49.832;10.746;2023-07-28T09:19:57;2.03;;;1.17;;
8632;SDS011;4354;49.832;10.746;2023-07-28T09:22:24;1.55;;;1.00;;
8632;SDS011;4354;49.832;10.746;2023-07-28T09:24:51;1.25;;;1.15;;
8632;SDS011;4354;49.832;10.746;2023-07-28T09:27:27;1.30;;;1.00;;
8632;SDS011;4354;49.832;10.746;2023-07-28T09:29:55;1.17;;;1.08;;
8632;SDS011;4354;49.832;10.746;2023-07-28T09:32:29;1.10;;;1.00;;
8632;SDS011;4354;49.832;10.746;2023-07-28T09:37:36;3.97;;;1.35;;
8632;SDS011;4354;49.832;10.746;2023-07-28T09:40:04;0.90;;;0.90;;
8632;SDS011;4354;49.832;10.746;2023-07-28T09:42:39;1.25;;;1.00;;
8632;SDS011;4354;49.832;10.746;2023-07-28T09:45:07;2.88;;;0.80;;
8632;SDS011;4354;49.832;10.746;2023-07-28T09:47:51;0.80;;;0.80;;
8632;SDS011;4354;49.832;10.746;2023-07-28T09:50:24;1.83;;;0.95;;
8632;SDS011;4354;49.832;10.746;2023-07-28T09:52:53;1.65;;;0.93;;
8632;SDS011;4354;49.832;10.746;2023-07-28T09:55:26;1.05;;;0.90;;
8632;SDS011;4354;49.832;10.746;2023-07-28T09:57:55;2.17;;;0.70;;
8632;SDS011;4354;49.832;10.746;2023-07-28T10:00:23;1.67;;;0.98;;
8632;SDS011;4354;49.832;10.746;2023-07-28T10:02:51;1.30;;;0.80;;
8632;SDS011;4354;49.832;10.746;2023-07-28T10:05:19;2.55;;;0.95;;
8632;SDS011;4354;49.832;10.746;2023-07-28T10:07:47;1.38;;;0.98;;
8632;SDS011;4354;49.832;10.746;2023-07-28T10:10:15;2.00;;;1.00;;
8632;SDS011;4354;49.832;10.746;2023-07-28T10:12:46;0.80;;;0.80;;
8632;SDS011;4354;49.832;10.746;2023-07-28T10:15:17;1.05;;;0.73;;
8632;SDS011;4354;49.832;10.746;2023-07-28T10:17:54;1.02;;;0.60;;
8632;SDS011;4354;49.832;10.746;2023-07-28T10:20:34;1.73;;;0.90;;
8632;SDS011;4354;49.832;10.746;2023-07-28T10:23:05;1.75;;;0.90;;
8632;SDS011;4354;49.832;10.746;2023-07-28T10:25:34;1.95;;;0.90;;
8632;SDS011;4354;49.832;10.746;2023-07-28T10:28:02;1.80;;;0.80;;
8632;SDS011;4354;49.832;10.746;2023-07-28T10:30:37;1.00;;;0.90;;
8632;SDS011;4354;49.832;10.746;2023-07-28T10:33:06;0.88;;;0.88;;
8632;SDS011;4354;49.832;10.746;2023-07-28T10:35:52;1.23;;;0.90;;
8632;SDS011;4354;49.832;10.746;2023-07-28T10:38:29;1.13;;;0.93;;
8632;SDS011;4354;49.832;10.746;2023-07-28T10:41:08;1.08;;;0.98;;
8632;SDS011;4354;49.832;10.746;2023-07-28T10:43:37;1.75;;;0.95;;
8632;SDS011;4354;49.832;10.746;2023-07-28T10:46:09;1.17;;;0.90;;
8632;SDS011;4354;49.832;10.746;2023-07-28T10:48:42;1.40;;;0.80;;
8632;SDS011;4354;49.832;10.746;2023-07-28T10:51:10;2.00;;;1.20;;
8632;SDS011;4354;49.832;10.746;2023-07-28T10:53:38;2.80;;;1.17;;
8632;SDS011;4354;49.832;10.746;2023-07-28T10:56:05;1.40;;;1.23;;
8632;SDS011;4354;49.832;10.746;2023-07-28T10:58:36;1.05;;;0.90;;
8632;SDS011;4354;49.832;10.746;2023-07-28T11:01:03;1.95;;;1.15;;
8632;SDS011;4354;49.832;10.746;2023-07-28T11:03:30;1.15;;;1.05;;
8632;SDS011;4354;49.832;10.746;2023-07-28T11:05:57;2.45;;;1.27;;
8632;SDS011;4354;49.832;10.746;2023-07-28T11:08:24;1.67;;;1.20;;
8632;SDS011;4354;49.832;10.746;2023-07-28T11:10:51;1.30;;;1.20;;
8632;SDS011;4354;49.832;10.746;2023-07-28T11:13:18;1.52;;;1.10;;
8632;SDS011;4354;49.832;10.746;2023-07-28T11:16:05;3.33;;;1.20;;
8632;SDS011;4354;49.832;10.746;2023-07-28T11:18:33;1.75;;;1.30;;
8632;SDS011;4354;49.832;10.746;2023-07-28T11:21:00;1.88;;;1.30;;
8632;SDS011;4354;49.832;10.746;2023-07-28T11:23:27;2.13;;;1.40;;
8632;SDS011;4354;49.832;10.746;2023-07-28T11:25:55;1.85;;;1.52;;
8632;SDS011;4354;49.832;10.746;2023-07-28T11:28:22;1.70;;;1.38;;
8632;SDS011;4354;49.832;10.746;2023-07-28T11:30:49;1.73;;;1.35;;
8632;SDS011;4354;49.832;10.746;2023-07-28T11:33:16;1.27;;;1.17;;
8632;SDS011;4354;49.832;10.746;2023-07-28T11:35:46;1.33;;;1.20;;
8632;SDS011;4354;49.832;10.746;2023-07-28T11:38:13;1.20;;;1.10;;
8632;SDS011;4354;49.832;10.746;2023-07-28T11:40:41;1.77;;;1.30;;
8632;SDS011;4354;49.832;10.746;2023-07-28T11:43:08;1.77;;;1.10;;
8632;SDS011;4354;49.832;10.746;2023-07-28T11:45:36;1.58;;;1.48;;
8632;SDS011;4354;49.832;10.746;2023-07-28T11:48:06;1.73;;;1.20;;
8632;SDS011;4354;49.832;10.746;2023-07-28T11:53:04;1.45;;;1.20;;
8632;SDS011;4354;49.832;10.746;2023-07-28T11:55:35;2.22;;;1.20;;
8632;SDS011;4354;49.832;10.746;2023-07-28T11:58:03;1.13;;;1.00;;
8632;SDS011;4354;49.832;10.746;2023-07-28T12:00:32;1.20;;;1.10;;
8632;SDS011;4354;49.832;10.746;2023-07-28T12:03:03;1.70;;;1.10;;
8632;SDS011;4354;49.832;10.746;2023-07-28T12:05:39;2.17;;;1.23;;
8632;SDS011;4354;49.832;10.746;2023-07-28T12:08:10;1.20;;;1.10;;
8632;SDS011;4354;49.832;10.746;2023-07-28T12:10:37;0.88;;;0.88;;
8632;SDS011;4354;49.832;10.746;2023-07-28T12:13:52;1.92;;;1.20;;
8632;SDS011;4354;49.832;10.746;2023-07-28T12:16:31;1.25;;;1.15;;
8632;SDS011;4354;49.832;10.746;2023-07-28T12:19:07;2.35;;;1.00;;
8632;SDS011;4354;49.832;10.746;2023-07-28T12:21:34;1.10;;;1.00;;
8632;SDS011;4354;49.832;10.746;2023-07-28T12:24:01;1.67;;;1.10;;
8632;SDS011;4354;49.832;10.746;2023-07-28T12:26:31;1.95;;;1.10;;
8632;SDS011;4354;49.832;10.746;2023-07-28T12:28:58;1.20;;;1.10;;
8632;SDS011;4354;49.832;10.746;2023-07-28T12:31:34;0.90;;;0.90;;
8632;SDS011;4354;49.832;10.746;2023-07-28T12:34:11;1.10;;;1.00;;
8632;SDS011;4354;49.832;10.746;2023-07-28T12:36:51;1.90;;;1.13;;
8632;SDS011;4354;49.832;10.746;2023-07-28T12:39:20;1.20;;;1.13;;
8632;SDS011;4354;49.832;10.746;2023-07-28T12:41:49;1.25;;;1.15;;
8632;SDS011;4354;49.832;10.746;2023-07-28T12:44:37;3.65;;;1.10;;
8632;SDS011;4354;49.832;10.746;2023-07-28T12:47:07;1.02;;;1.00;;
8632;SDS011;4354;49.832;10.746;2023-07-28T12:49:34;1.25;;;0.90;;
8632;SDS011;4354;49.832;10.746;2023-07-28T12:52:03;1.00;;;1.00;;
8632;SDS011;4354;49.832;10.746;2023-07-28T12:54:33;1.55;;;1.05;;
8632;SDS011;4354;49.832;10.746;2023-07-28T12:57:10;2.95;;;1.20;;
8632;SDS011;4354;49.832;10.746;2023-07-28T12:59:39;1.20;;;1.10;;
8632;SDS011;4354;49.832;10.746;2023-07-28T13:02:09;1.83;;;1.10;;
8632;SDS011;4354;49.832;10.746;2023-07-28T13:04:36;1.33;;;1.23;;
8632;SDS011;4354;49.832;10.746;2023-07-28T13:07:03;1.85;;;1.30;;
8632;SDS011;4354;49.832;10.746;2023-07-28T13:09:33;1.33;;;1.23;;
8632;SDS011;4354;49.832;10.746;2023-07-28T13:12:02;1.05;;;0.98;;
8632;SDS011;4354;49.832;10.746;2023-07-28T13:14:33;3.25;;;1.27;;
8632;SDS011;4354;49.832;10.746;2023-07-28T13:17:00;2.15;;;1.10;;
8632;SDS011;4354;49.832;10.746;2023-07-28T13:19:27;2.20;;;1.10;;
8632;SDS011;4354;49.832;10.746;2023-07-28T13:21:54;1.35;;;0.90;;
8632;SDS011;4354;49.832;10.746;2023-07-28T13:24:20;1.00;;;1.00;;
8632;SDS011;4354;49.832;10.746;2023-07-28T13:26:47;1.30;;;1.20;;
8632;SDS011;4354;49.832;10.746;2023-07-28T13:29:14;0.88;;;0.82;;
8632;SDS011;4354;49.832;10.746;2023-07-28T13:31:41;0.93;;;0.93;;
8632;SDS011;4354;49.832;10.746;2023-07-28T13:34:09;1.17;;;1.08;;
8632;SDS011;4354;49.832;10.746;2023-07-28T13:36:36;1.20;;;1.10;;
8632;SDS011;4354;49.832;10.746;2023-07-28T13:39:03;1.38;;;1.02;;
8632;SDS011;4354;49.832;10.746;2023-07-28T13:41:29;1.15;;;1.00;;
8632;SDS011;4354;49.832;10.746;2023-07-28T13:43:56;4.30;;;1.30;;
8632;SDS011;4354;49.832;10.746;2023-07-28T13:46:28;1.10;;;1.10;;
8632;SDS011;4354;49.832;10.746;2023-07-28T13:48:54;1.95;;;1.10;;
8632;SDS011;4354;49.832;10.746;2023-07-28T13:51:32;1.20;;;1.10;;
8632;SDS011;4354;49.832;10.746;2023-07-28T13:54:18;1.70;;;1.10;;
8632;SDS011;4354;49.832;10.746;2023-07-28T13:56:48;1.00;;;1.00;;
8632;SDS011;4354;49.832;10.746;2023-07-28T13:59:18;0.80;;;0.80;;
8632;SDS011;4354;49.832;10.746;2023-07-28T14:01:45;1.00;;;1.00;;
8632;SDS011;4354;49.832;10.746;2023-07-28T14:04:11;1.20;;;1.10;;
8632;SDS011;4354;49.832;10.746;2023-07-28T14:06:40;1.10;;;1.00;;
8632;SDS011;4354;49.832;10.746;2023-07-28T14:09:06;13.07;;;1.58;;
8632;SDS011;4354;49.832;10.746;2023-07-28T14:11:33;1.13;;;0.95;;
8632;SDS011;4354;49.832;10.746;2023-07-28T14:14:01;1.83;;;1.10;;
8632;SDS011;4354;49.832;10.746;2023-07-28T14:16:27;1.20;;;1.10;;
8632;SDS011;4354;49.832;10.746;2023-07-28T14:18:54;2.00;;;1.10;;
8632;SDS011;4354;49.832;10.746;2023-07-28T14:21:21;3.63;;;1.30;;
8632;SDS011;4354;49.832;10.746;2023-07-28T14:23:48;1.98;;;0.90;;
8632;SDS011;4354;49.832;10.746;2023-07-28T14:26:14;1.35;;;1.00;;
8632;SDS011;4354;49.832;10.746;2023-07-28T14:28:42;1.92;;;1.15;;
8632;SDS011;4354;49.832;10.746;2023-07-28T14:31:09;1.10;;;1.00;;
8632;SDS011;4354;49.832;10.746;2023-07-28T14:33:36;1.33;;;0.82;;
8632;SDS011;4354;49.832;10.746;2023-07-28T14:36:02;1.02;;;0.90;;
8632;SDS011;4354;49.832;10.746;2023-07-28T14:38:29;1.73;;;0.88;;
8632;SDS011;4354;49.832;10.746;2023-07-28T14:40:56;0.93;;;0.93;;
8632;SDS011;4354;49.832;10.746;2023-07-28T14:43:23;0.70;;;0.70;;
8632;SDS011;4354;49.832;10.746;2023-07-28T14:45:51;0.90;;;0.90;;
8632;SDS011;4354;49.832;10.746;2023-07-28T14:48:18;1.42;;;0.82;;
8632;SDS011;4354;49.832;10.746;2023-07-28T14:50:45;1.67;;;1.13;;
8632;SDS011;4354;49.832;10.746;2023-07-28T14:55:55;1.13;;;1.02;;
8632;SDS011;4354;49.832;10.746;2023-07-28T14:58:22;1.10;;;1.00;;
8632;SDS011;4354;49.832;10.746;2023-07-28T15:00:49;0.93;;;0.90;;
8632;SDS011;4354;49.832;10.746;2023-07-28T15:03:16;1.52;;;1.00;;
8632;SDS011;4354;49.832;10.746;2023-07-28T15:05:43;2.58;;;1.38;;
8632;SDS011;4354;49.832;10.746;2023-07-28T15:08:11;0.88;;;0.82;;
8632;SDS011;4354;49.832;10.746;2023-07-28T15:10:37;1.10;;;1.00;;
8632;SDS011;4354;49.832;10.746;2023-07-28T15:13:04;2.42;;;1.20;;
8632;SDS011;4354;49.832;10.746;2023-07-28T15:15:31;1.48;;;1.10;;
8632;SDS011;4354;49.832;10.746;2023-07-28T15:17:58;1.52;;;1.35;;